sensor_id;sensor_type;location;lat;lon;timestamp;temperature;humidity
11963;DHT22;62678;52.130;5.584;2023-03-14T00:01:08;12.40;99.90
11963;DHT22;62678;52.130;5.584;2023-03-14T00:03:36;12.40;99.90
11963;DHT22;62678;52.130;5.584;2023-03-14T00:06:03;12.30;99.90
11963;DHT22;62678;52.130;5.584;2023-03-14T00:08:30;12.20;99.90
11963;DHT22;62678;52.130;5.584;2023-03-14T00:10:57;12.20;99.90
11963;DHT22;62678;52.130;5.584;2023-03-14T00:13:26;12.10;99.90
11963;DHT22;62678;52.130;5.584;2023-03-14T00:15:52;12.00;99.90
11963;DHT22;62678;52.130;5.584;2023-03-14T00:18:20;12.00;99.90
11963;DHT22;62678;52.130;5.584;2023-03-14T00:20:48;12.00;99.90
11963;DHT22;62678;52.130;5.584;2023-03-14T00:23:15;12.00;99.90
11963;DHT22;62678;52.130;5.584;2023-03-14T00:25:41;11.90;99.90
11963;DHT22;62678;52.130;5.584;2023-03-14T00:28:08;11.90;99.90
11963;DHT22;62678;52.130;5.584;2023-03-14T00:30:38;11.90;99.90
11963;DHT22;62678;52.130;5.584;2023-03-14T00:33:05;11.80;99.90
11963;DHT22;62678;52.130;5.584;2023-03-14T00:35:32;11.90;99.90
11963;DHT22;62678;52.130;5.584;2023-03-14T00:37:59;11.90;99.90
11963;DHT22;62678;52.130;5.584;2023-03-14T00:40:26;11.90;99.90
11963;DHT22;62678;52.130;5.584;2023-03-14T00:42:53;11.80;99.90
11963;DHT22;62678;52.130;5.584;2023-03-14T00:45:20;11.80;99.90
11963;DHT22;62678;52.130;5.584;2023-03-14T00:47:48;11.70;99.90
11963;DHT22;62678;52.130;5.584;2023-03-14T00:50:15;11.70;99.90
11963;DHT22;62678;52.130;5.584;2023-03-14T00:52:42;11.70;99.90
11963;DHT22;62678;52.130;5.584;2023-03-14T00:55:09;11.60;99.90
11963;DHT22;62678;52.130;5.584;2023-03-14T00:57:36;11.50;99.90
11963;DHT22;62678;52.130;5.584;2023-03-14T01:00:04;11.60;99.90
11963;DHT22;62678;52.130;5.584;2023-03-14T01:02:33;11.60;99.90
11963;DHT22;62678;52.130;5.584;2023-03-14T01:05:01;11.60;99.90
11963;DHT22;62678;52.130;5.584;2023-03-14T01:07:29;11.60;99.90
11963;DHT22;62678;52.130;5.584;2023-03-14T01:09:59;11.60;99.90
11963;DHT22;62678;52.130;5.584;2023-03-14T01:12:27;11.60;99.90
11963;DHT22;62678;52.130;5.584;2023-03-14T01:14:54;11.60;99.90
11963;DHT22;62678;52.130;5.584;2023-03-14T01:17:21;11.40;99.90
11963;DHT22;62678;52.130;5.584;2023-03-14T01:19:48;11.30;99.90
11963;DHT22;62678;52.130;5.584;2023-03-14T01:22:16;11.30;99.90
11963;DHT22;62678;52.130;5.584;2023-03-14T01:24:43;11.30;99.90
11963;DHT22;62678;52.130;5.584;2023-03-14T01:27:10;11.10;99.90
11963;DHT22;62678;52.130;5.584;2023-03-14T01:29:37;10.90;99.90
11963;DHT22;62678;52.130;5.584;2023-03-14T01:32:04;10.90;99.90
11963;DHT22;62678;52.130;5.584;2023-03-14T01:34:31;10.70;99.90
11963;DHT22;62678;52.130;5.584;2023-03-14T01:36:58;10.60;99.90
11963;DHT22;62678;52.130;5.584;2023-03-14T01:39:26;10.50;99.90
11963;DHT22;62678;52.130;5.584;2023-03-14T01:41:54;10.40;99.90
11963;DHT22;62678;52.130;5.584;2023-03-14T01:44:21;10.30;99.90
11963;DHT22;62678;52.130;5.584;2023-03-14T01:46:47;10.30;99.90
11963;DHT22;62678;52.130;5.584;2023-03-14T01:49:22;10.20;99.90
11963;DHT22;62678;52.130;5.584;2023-03-14T01:51:53;10.10;99.90
11963;DHT22;62678;52.130;5.584;2023-03-14T01:54:27;10.10;99.90
11963;DHT22;62678;52.130;5.584;2023-03-14T01:56:58;10.10;99.90
11963;DHT22;62678;52.130;5.584;2023-03-14T01:59:29;10.10;99.90
11963;DHT22;62678;52.130;5.584;2023-03-14T02:01:57;10.10;99.90
11963;DHT22;62678;52.130;5.584;2023-03-14T02:04:27;10.10;99.90
11963;DHT22;62678;52.130;5.584;2023-03-14T02:06:58;10.00;99.90
11963;DHT22;62678;52.130;5.584;2023-03-14T02:09:28;10.00;99.90
11963;DHT22;62678;52.130;5.584;2023-03-14T02:11:56;10.00;99.90
11963;DHT22;62678;52.130;5.584;2023-03-14T02:14:30;9.90;99.90
11963;DHT22;62678;52.130;5.584;2023-03-14T02:16:58;9.90;99.90
11963;DHT22;62678;52.130;5.584;2023-03-14T02:19:40;9.90;99.90
11963;DHT22;62678;52.130;5.584;2023-03-14T02:22:12;9.90;99.90
11963;DHT22;62678;52.130;5.584;2023-03-14T02:24:46;10.00;99.90
11963;DHT22;62678;52.130;5.584;2023-03-14T02:27:18;10.00;99.90
11963;DHT22;62678;52.130;5.584;2023-03-14T02:29:50;9.90;99.90
11963;DHT22;62678;52.130;5.584;2023-03-14T02:32:20;9.90;99.90
11963;DHT22;62678;52.130;5.584;2023-03-14T02:34:50;10.00;99.90
11963;DHT22;62678;52.130;5.584;2023-03-14T02:37:20;9.90;99.90
11963;DHT22;62678;52.130;5.584;2023-03-14T02:39:49;9.90;99.90
11963;DHT22;62678;52.130;5.584;2023-03-14T02:42:17;9.90;99.90
11963;DHT22;62678;52.130;5.584;2023-03-14T02:44:50;9.90;99.90
11963;DHT22;62678;52.130;5.584;2023-03-14T02:47:20;10.00;99.90
11963;DHT22;62678;52.130;5.584;2023-03-14T02:49:47;9.90;99.90
11963;DHT22;62678;52.130;5.584;2023-03-14T02:52:15;9.90;99.90
11963;DHT22;62678;52.130;5.584;2023-03-14T02:54:42;9.90;99.90
11963;DHT22;62678;52.130;5.584;2023-03-14T02:57:08;9.90;99.90
11963;DHT22;62678;52.130;5.584;2023-03-14T02:59:37;10.00;99.90
11963;DHT22;62678;52.130;5.584;2023-03-14T03:02:04;9.90;99.90
11963;DHT22;62678;52.130;5.584;2023-03-14T03:04:31;9.90;99.90
11963;DHT22;62678;52.130;5.584;2023-03-14T03:06:58;10.00;99.90
11963;DHT22;62678;52.130;5.584;2023-03-14T03:09:25;10.00;99.90
11963;DHT22;62678;52.130;5.584;2023-03-14T03:11:52;10.00;99.90
11963;DHT22;62678;52.130;5.584;2023-03-14T03:14:19;10.00;99.90
11963;DHT22;62678;52.130;5.584;2023-03-14T03:16:47;9.90;99.90
11963;DHT22;62678;52.130;5.584;2023-03-14T03:19:14;10.00;99.90
11963;DHT22;62678;52.130;5.584;2023-03-14T03:21:42;9.90;99.90
11963;DHT22;62678;52.130;5.584;2023-03-14T03:24:09;10.00;99.90
11963;DHT22;62678;52.130;5.584;2023-03-14T03:26:36;9.90;99.90
11963;DHT22;62678;52.130;5.584;2023-03-14T03:29:03;9.90;99.90
11963;DHT22;62678;52.130;5.584;2023-03-14T03:31:30;9.90;99.90
11963;DHT22;62678;52.130;5.584;2023-03-14T03:33:58;10.00;99.90
11963;DHT22;62678;52.130;5.584;2023-03-14T03:36:26;10.00;99.90
11963;DHT22;62678;52.130;5.584;2023-03-14T03:38:53;10.10;99.90
11963;DHT22;62678;52.130;5.584;2023-03-14T03:41:20;10.10;99.90
11963;DHT22;62678;52.130;5.584;2023-03-14T03:43:47;10.10;99.90
11963;DHT22;62678;52.130;5.584;2023-03-14T03:46:14;10.10;99.90
11963;DHT22;62678;52.130;5.584;2023-03-14T03:48:41;10.10;99.90
11963;DHT22;62678;52.130;5.584;2023-03-14T03:51:13;10.10;99.90
11963;DHT22;62678;52.130;5.584;2023-03-14T03:53:41;10.10;99.90
11963;DHT22;62678;52.130;5.584;2023-03-14T03:56:09;10.10;99.90
11963;DHT22;62678;52.130;5.584;2023-03-14T03:58:36;10.10;99.90
11963;DHT22;62678;52.130;5.584;2023-03-14T04:01:04;10.00;99.90
11963;DHT22;62678;52.130;5.584;2023-03-14T04:03:32;10.10;99.90
11963;DHT22;62678;52.130;5.584;2023-03-14T04:05:59;10.00;99.90
11963;DHT22;62678;52.130;5.584;2023-03-14T04:08:28;10.10;99.90
11963;DHT22;62678;52.130;5.584;2023-03-14T04:10:57;10.10;99.90
11963;DHT22;62678;52.130;5.584;2023-03-14T04:13:24;10.10;99.90
11963;DHT22;62678;52.130;5.584;2023-03-14T04:15:51;10.10;99.90
11963;DHT22;62678;52.130;5.584;2023-03-14T04:18:19;10.10;99.90
11963;DHT22;62678;52.130;5.584;2023-03-14T04:20:46;10.10;99.90
11963;DHT22;62678;52.130;5.584;2023-03-14T04:23:17;10.10;99.90
11963;DHT22;62678;52.130;5.584;2023-03-14T04:25:45;10.20;99.90
11963;DHT22;62678;52.130;5.584;2023-03-14T04:28:12;10.20;99.90
11963;DHT22;62678;52.130;5.584;2023-03-14T04:30:39;10.20;99.90
11963;DHT22;62678;52.130;5.584;2023-03-14T04:33:06;10.30;99.90
11963;DHT22;62678;52.130;5.584;2023-03-14T04:35:33;10.30;99.90
11963;DHT22;62678;52.130;5.584;2023-03-14T04:38:01;10.30;99.90
11963;DHT22;62678;52.130;5.584;2023-03-14T04:40:28;10.30;99.90
11963;DHT22;62678;52.130;5.584;2023-03-14T04:42:56;10.30;99.90
11963;DHT22;62678;52.130;5.584;2023-03-14T04:45:23;10.30;99.90
11963;DHT22;62678;52.130;5.584;2023-03-14T04:47:50;10.20;99.90
11963;DHT22;62678;52.130;5.584;2023-03-14T04:50:17;10.20;99.90
11963;DHT22;62678;52.130;5.584;2023-03-14T04:52:44;10.30;99.90
11963;DHT22;62678;52.130;5.584;2023-03-14T04:55:11;10.20;99.90
11963;DHT22;62678;52.130;5.584;2023-03-14T04:57:38;10.30;99.90
11963;DHT22;62678;52.130;5.584;2023-03-14T05:00:08;10.30;99.90
11963;DHT22;62678;52.130;5.584;2023-03-14T05:02:35;10.30;99.90
11963;DHT22;62678;52.130;5.584;2023-03-14T05:05:03;10.30;99.90
11963;DHT22;62678;52.130;5.584;2023-03-14T05:07:30;10.20;99.90
11963;DHT22;62678;52.130;5.584;2023-03-14T05:09:57;10.20;99.90
11963;DHT22;62678;52.130;5.584;2023-03-14T05:12:24;10.20;99.90
11963;DHT22;62678;52.130;5.584;2023-03-14T05:14:51;10.30;99.90
11963;DHT22;62678;52.130;5.584;2023-03-14T05:17:19;10.30;99.90
11963;DHT22;62678;52.130;5.584;2023-03-14T05:19:46;10.30;99.90
11963;DHT22;62678;52.130;5.584;2023-03-14T05:22:13;10.20;99.90
11963;DHT22;62678;52.130;5.584;2023-03-14T05:24:40;10.10;99.90
11963;DHT22;62678;52.130;5.584;2023-03-14T05:27:07;10.10;99.90
11963;DHT22;62678;52.130;5.584;2023-03-14T05:29:34;10.00;99.90
11963;DHT22;62678;52.130;5.584;2023-03-14T05:32:01;10.00;99.90
11963;DHT22;62678;52.130;5.584;2023-03-14T05:34:30;10.00;99.90
11963;DHT22;62678;52.130;5.584;2023-03-14T05:37:00;10.00;99.90
11963;DHT22;62678;52.130;5.584;2023-03-14T05:39:27;10.00;99.90
11963;DHT22;62678;52.130;5.584;2023-03-14T05:41:54;10.00;99.90
11963;DHT22;62678;52.130;5.584;2023-03-14T05:44:22;10.00;99.90
11963;DHT22;62678;52.130;5.584;2023-03-14T05:46:49;10.00;99.90
11963;DHT22;62678;52.130;5.584;2023-03-14T05:49:16;10.00;99.90
11963;DHT22;62678;52.130;5.584;2023-03-14T05:51:44;10.00;99.90
11963;DHT22;62678;52.130;5.584;2023-03-14T05:54:11;10.00;99.90
11963;DHT22;62678;52.130;5.584;2023-03-14T05:56:38;10.00;99.90
11963;DHT22;62678;52.130;5.584;2023-03-14T05:59:05;9.90;99.90
11963;DHT22;62678;52.130;5.584;2023-03-14T06:01:34;10.00;99.90
11963;DHT22;62678;52.130;5.584;2023-03-14T06:04:01;9.90;99.90
11963;DHT22;62678;52.130;5.584;2023-03-14T06:06:28;9.90;99.90
11963;DHT22;62678;52.130;5.584;2023-03-14T06:08:57;9.90;99.90
11963;DHT22;62678;52.130;5.584;2023-03-14T06:11:24;9.90;99.90
11963;DHT22;62678;52.130;5.584;2023-03-14T06:13:51;9.90;99.90
11963;DHT22;62678;52.130;5.584;2023-03-14T06:16:18;9.90;99.90
11963;DHT22;62678;52.130;5.584;2023-03-14T06:18:45;9.90;99.90
11963;DHT22;62678;52.130;5.584;2023-03-14T06:21:14;9.90;99.90
11963;DHT22;62678;52.130;5.584;2023-03-14T06:23:41;10.00;99.90
11963;DHT22;62678;52.130;5.584;2023-03-14T06:26:09;10.00;99.90
11963;DHT22;62678;52.130;5.584;2023-03-14T06:28:37;10.00;99.90
11963;DHT22;62678;52.130;5.584;2023-03-14T06:31:05;10.10;99.90
11963;DHT22;62678;52.130;5.584;2023-03-14T06:33:32;10.00;99.90
11963;DHT22;62678;52.130;5.584;2023-03-14T06:35:59;10.00;99.90
11963;DHT22;62678;52.130;5.584;2023-03-14T06:38:26;10.10;99.90
11963;DHT22;62678;52.130;5.584;2023-03-14T06:40:53;10.10;99.90
11963;DHT22;62678;52.130;5.584;2023-03-14T06:43:21;10.10;99.90
11963;DHT22;62678;52.130;5.584;2023-03-14T06:45:48;10.10;99.90
11963;DHT22;62678;52.130;5.584;2023-03-14T06:48:15;10.10;99.90
11963;DHT22;62678;52.130;5.584;2023-03-14T06:50:43;10.10;99.90
11963;DHT22;62678;52.130;5.584;2023-03-14T06:53:10;10.10;99.90
11963;DHT22;62678;52.130;5.584;2023-03-14T06:55:37;10.10;99.90
11963;DHT22;62678;52.130;5.584;2023-03-14T06:58:04;10.10;99.90
11963;DHT22;62678;52.130;5.584;2023-03-14T07:00:35;10.10;99.90
11963;DHT22;62678;52.130;5.584;2023-03-14T07:03:02;10.00;99.90
11963;DHT22;62678;52.130;5.584;2023-03-14T07:05:29;9.70;99.90
11963;DHT22;62678;52.130;5.584;2023-03-14T07:07:56;9.40;99.90
11963;DHT22;62678;52.130;5.584;2023-03-14T07:10:24;9.10;99.90
11963;DHT22;62678;52.130;5.584;2023-03-14T07:12:51;8.90;99.90
11963;DHT22;62678;52.130;5.584;2023-03-14T07:15:18;8.90;99.90
11963;DHT22;62678;52.130;5.584;2023-03-14T07:17:46;8.70;99.90
11963;DHT22;62678;52.130;5.584;2023-03-14T07:20:13;8.60;99.90
11963;DHT22;62678;52.130;5.584;2023-03-14T07:22:40;8.50;99.90
11963;DHT22;62678;52.130;5.584;2023-03-14T07:25:08;8.40;99.90
11963;DHT22;62678;52.130;5.584;2023-03-14T07:27:37;8.40;99.90
11963;DHT22;62678;52.130;5.584;2023-03-14T07:30:05;8.40;99.90
11963;DHT22;62678;52.130;5.584;2023-03-14T07:32:33;8.40;99.90
11963;DHT22;62678;52.130;5.584;2023-03-14T07:35:01;8.50;99.90
11963;DHT22;62678;52.130;5.584;2023-03-14T07:37:28;8.40;99.90
11963;DHT22;62678;52.130;5.584;2023-03-14T07:39:55;8.40;99.90
11963;DHT22;62678;52.130;5.584;2023-03-14T07:42:22;8.30;99.90
11963;DHT22;62678;52.130;5.584;2023-03-14T07:44:49;8.30;99.90
11963;DHT22;62678;52.130;5.584;2023-03-14T07:47:16;8.30;99.90
11963;DHT22;62678;52.130;5.584;2023-03-14T07:49:43;8.20;99.90
11963;DHT22;62678;52.130;5.584;2023-03-14T07:52:11;8.20;99.90
11963;DHT22;62678;52.130;5.584;2023-03-14T07:54:38;8.20;99.90
11963;DHT22;62678;52.130;5.584;2023-03-14T07:57:05;8.20;99.90
11963;DHT22;62678;52.130;5.584;2023-03-14T07:59:32;8.00;99.90
11963;DHT22;62678;52.130;5.584;2023-03-14T08:01:59;8.10;99.90
11963;DHT22;62678;52.130;5.584;2023-03-14T08:04:25;8.00;99.90
11963;DHT22;62678;52.130;5.584;2023-03-14T08:06:53;7.90;99.90
11963;DHT22;62678;52.130;5.584;2023-03-14T08:09:21;7.90;99.90
11963;DHT22;62678;52.130;5.584;2023-03-14T08:11:48;7.80;99.90
11963;DHT22;62678;52.130;5.584;2023-03-14T08:14:16;7.60;99.90
11963;DHT22;62678;52.130;5.584;2023-03-14T08:16:43;7.20;99.90
11963;DHT22;62678;52.130;5.584;2023-03-14T08:19:11;6.90;99.90
11963;DHT22;62678;52.130;5.584;2023-03-14T08:21:38;6.80;99.90
11963;DHT22;62678;52.130;5.584;2023-03-14T08:24:05;6.70;99.90
11963;DHT22;62678;52.130;5.584;2023-03-14T08:26:34;6.50;99.90
11963;DHT22;62678;52.130;5.584;2023-03-14T08:29:02;6.50;99.90
11963;DHT22;62678;52.130;5.584;2023-03-14T08:31:31;6.50;99.90
11963;DHT22;62678;52.130;5.584;2023-03-14T08:33:58;6.50;99.90
11963;DHT22;62678;52.130;5.584;2023-03-14T08:36:26;6.60;99.90
11963;DHT22;62678;52.130;5.584;2023-03-14T08:38:53;6.60;99.90
11963;DHT22;62678;52.130;5.584;2023-03-14T08:41:20;6.50;99.90
11963;DHT22;62678;52.130;5.584;2023-03-14T08:43:48;6.50;99.90
11963;DHT22;62678;52.130;5.584;2023-03-14T08:46:15;6.60;99.90
11963;DHT22;62678;52.130;5.584;2023-03-14T08:48:42;6.50;99.90
11963;DHT22;62678;52.130;5.584;2023-03-14T08:51:13;6.50;99.90
11963;DHT22;62678;52.130;5.584;2023-03-14T08:53:40;6.40;99.90
11963;DHT22;62678;52.130;5.584;2023-03-14T08:56:09;6.40;99.90
11963;DHT22;62678;52.130;5.584;2023-03-14T08:58:36;6.50;99.90
11963;DHT22;62678;52.130;5.584;2023-03-14T09:01:05;6.50;99.90
11963;DHT22;62678;52.130;5.584;2023-03-14T09:03:32;6.50;99.90
11963;DHT22;62678;52.130;5.584;2023-03-14T09:06:02;6.70;99.90
11963;DHT22;62678;52.130;5.584;2023-03-14T09:08:30;6.70;99.90
11963;DHT22;62678;52.130;5.584;2023-03-14T09:10:57;6.70;99.90
11963;DHT22;62678;52.130;5.584;2023-03-14T09:13:24;6.80;99.90
11963;DHT22;62678;52.130;5.584;2023-03-14T09:15:51;6.90;99.90
11963;DHT22;62678;52.130;5.584;2023-03-14T09:18:19;7.00;99.90
11963;DHT22;62678;52.130;5.584;2023-03-14T09:20:46;7.00;99.90
11963;DHT22;62678;52.130;5.584;2023-03-14T09:23:15;7.00;99.90
11963;DHT22;62678;52.130;5.584;2023-03-14T09:25:42;7.00;99.90
11963;DHT22;62678;52.130;5.584;2023-03-14T09:28:09;7.00;99.90
11963;DHT22;62678;52.130;5.584;2023-03-14T09:30:36;7.00;99.90
11963;DHT22;62678;52.130;5.584;2023-03-14T09:33:03;7.00;99.90
11963;DHT22;62678;52.130;5.584;2023-03-14T09:35:33;7.00;99.90
11963;DHT22;62678;52.130;5.584;2023-03-14T09:38:00;7.10;99.90
11963;DHT22;62678;52.130;5.584;2023-03-14T09:40:31;7.20;99.90
11963;DHT22;62678;52.130;5.584;2023-03-14T09:42:59;7.10;99.90
11963;DHT22;62678;52.130;5.584;2023-03-14T09:45:27;7.00;99.90
11963;DHT22;62678;52.130;5.584;2023-03-14T09:47:55;7.20;99.90
11963;DHT22;62678;52.130;5.584;2023-03-14T09:50:24;7.20;99.90
11963;DHT22;62678;52.130;5.584;2023-03-14T09:52:56;7.10;99.90
11963;DHT22;62678;52.130;5.584;2023-03-14T09:55:23;7.00;99.90
11963;DHT22;62678;52.130;5.584;2023-03-14T09:57:54;7.10;99.90
11963;DHT22;62678;52.130;5.584;2023-03-14T10:00:26;7.20;99.90
11963;DHT22;62678;52.130;5.584;2023-03-14T10:02:56;7.30;99.90
11963;DHT22;62678;52.130;5.584;2023-03-14T10:05:25;7.30;99.90
11963;DHT22;62678;52.130;5.584;2023-03-14T10:07:54;7.30;99.90
11963;DHT22;62678;52.130;5.584;2023-03-14T10:10:23;7.30;99.90
11963;DHT22;62678;52.130;5.584;2023-03-14T10:12:56;7.40;99.90
11963;DHT22;62678;52.130;5.584;2023-03-14T10:15:26;7.40;99.90
11963;DHT22;62678;52.130;5.584;2023-03-14T10:17:53;7.50;99.90
11963;DHT22;62678;52.130;5.584;2023-03-14T10:20:30;7.40;99.90
11963;DHT22;62678;52.130;5.584;2023-03-14T10:23:01;7.50;99.90
11963;DHT22;62678;52.130;5.584;2023-03-14T10:25:30;7.40;99.90
11963;DHT22;62678;52.130;5.584;2023-03-14T10:27:58;7.40;99.90
11963;DHT22;62678;52.130;5.584;2023-03-14T10:30:38;7.10;99.90
11963;DHT22;62678;52.130;5.584;2023-03-14T10:33:10;6.70;99.90
11963;DHT22;62678;52.130;5.584;2023-03-14T10:35:39;6.20;99.90
11963;DHT22;62678;52.130;5.584;2023-03-14T10:38:13;6.30;99.90
11963;DHT22;62678;52.130;5.584;2023-03-14T10:40:46;6.50;99.90
11963;DHT22;62678;52.130;5.584;2023-03-14T10:43:17;6.70;99.90
11963;DHT22;62678;52.130;5.584;2023-03-14T10:45:51;6.90;99.90
11963;DHT22;62678;52.130;5.584;2023-03-14T10:48:25;7.20;99.90
11963;DHT22;62678;52.130;5.584;2023-03-14T10:50:57;7.20;99.90
11963;DHT22;62678;52.130;5.584;2023-03-14T10:53:26;7.30;99.90
11963;DHT22;62678;52.130;5.584;2023-03-14T10:55:55;7.20;99.90
11963;DHT22;62678;52.130;5.584;2023-03-14T10:58:24;7.00;99.90
11963;DHT22;62678;52.130;5.584;2023-03-14T11:01:00;6.70;99.90
11963;DHT22;62678;52.130;5.584;2023-03-14T11:03:31;6.50;99.90
11963;DHT22;62678;52.130;5.584;2023-03-14T11:06:03;6.50;99.90
11963;DHT22;62678;52.130;5.584;2023-03-14T11:08:41;6.50;99.90
11963;DHT22;62678;52.130;5.584;2023-03-14T11:11:15;6.50;99.90
11963;DHT22;62678;52.130;5.584;2023-03-14T11:13:56;6.70;99.90
11963;DHT22;62678;52.130;5.584;2023-03-14T11:16:29;6.80;99.90
11963;DHT22;62678;52.130;5.584;2023-03-14T11:19:13;6.70;99.90
11963;DHT22;62678;52.130;5.584;2023-03-14T11:21:46;6.70;99.90
11963;DHT22;62678;52.130;5.584;2023-03-14T11:24:36;6.60;99.90
11963;DHT22;62678;52.130;5.584;2023-03-14T11:27:13;6.80;99.90
11963;DHT22;62678;52.130;5.584;2023-03-14T11:29:46;6.90;99.90
11963;DHT22;62678;52.130;5.584;2023-03-14T11:32:31;7.00;99.90
11963;DHT22;62678;52.130;5.584;2023-03-14T11:35:04;7.00;99.90
11963;DHT22;62678;52.130;5.584;2023-03-14T11:37:38;7.10;99.90
11963;DHT22;62678;52.130;5.584;2023-03-14T11:40:14;7.20;99.90
11963;DHT22;62678;52.130;5.584;2023-03-14T11:42:45;7.50;99.90
11963;DHT22;62678;52.130;5.584;2023-03-14T11:45:17;7.60;99.90
11963;DHT22;62678;52.130;5.584;2023-03-14T11:47:48;7.70;99.90
11963;DHT22;62678;52.130;5.584;2023-03-14T11:50:19;7.70;99.90
11963;DHT22;62678;52.130;5.584;2023-03-14T11:52:52;8.00;99.90
11963;DHT22;62678;52.130;5.584;2023-03-14T11:55:27;8.00;99.90
11963;DHT22;62678;52.130;5.584;2023-03-14T11:57:58;7.80;99.90
11963;DHT22;62678;52.130;5.584;2023-03-14T12:00:26;7.60;99.90
11963;DHT22;62678;52.130;5.584;2023-03-14T12:02:58;7.60;99.90
11963;DHT22;62678;52.130;5.584;2023-03-14T12:05:39;7.60;99.90
11963;DHT22;62678;52.130;5.584;2023-03-14T12:08:33;7.70;99.90
11963;DHT22;62678;52.130;5.584;2023-03-14T12:11:11;7.60;99.90
11963;DHT22;62678;52.130;5.584;2023-03-14T12:13:40;7.70;99.90
11963;DHT22;62678;52.130;5.584;2023-03-14T12:16:24;7.90;99.90
11963;DHT22;62678;52.130;5.584;2023-03-14T12:18:52;7.90;99.90
11963;DHT22;62678;52.130;5.584;2023-03-14T12:21:20;7.90;99.90
11963;DHT22;62678;52.130;5.584;2023-03-14T12:23:49;8.00;99.90
11963;DHT22;62678;52.130;5.584;2023-03-14T12:26:23;7.90;99.90
11963;DHT22;62678;52.130;5.584;2023-03-14T12:28:51;7.90;99.90
11963;DHT22;62678;52.130;5.584;2023-03-14T12:31:41;8.10;99.90
11963;DHT22;62678;52.130;5.584;2023-03-14T12:34:30;8.20;99.90
11963;DHT22;62678;52.130;5.584;2023-03-14T12:37:24;8.10;99.90
11963;DHT22;62678;52.130;5.584;2023-03-14T12:40:06;7.90;99.90
11963;DHT22;62678;52.130;5.584;2023-03-14T12:42:54;8.00;99.90
11963;DHT22;62678;52.130;5.584;2023-03-14T12:45:26;8.20;99.90
11963;DHT22;62678;52.130;5.584;2023-03-14T12:48:10;8.10;99.90
11963;DHT22;62678;52.130;5.584;2023-03-14T12:50:44;8.00;99.90
11963;DHT22;62678;52.130;5.584;2023-03-14T12:53:30;8.20;99.90
11963;DHT22;62678;52.130;5.584;2023-03-14T12:56:06;8.20;99.90
11963;DHT22;62678;52.130;5.584;2023-03-14T12:58:39;8.10;99.90
11963;DHT22;62678;52.130;5.584;2023-03-14T13:01:16;8.20;99.90
11963;DHT22;62678;52.130;5.584;2023-03-14T13:03:45;8.00;99.90
11963;DHT22;62678;52.130;5.584;2023-03-14T13:06:50;7.80;99.90
11963;DHT22;62678;52.130;5.584;2023-03-14T13:09:45;7.90;99.90
11963;DHT22;62678;52.130;5.584;2023-03-14T13:12:17;8.00;99.90
11963;DHT22;62678;52.130;5.584;2023-03-14T13:14:48;8.30;99.90
11963;DHT22;62678;52.130;5.584;2023-03-14T13:17:24;8.20;99.90
11963;DHT22;62678;52.130;5.584;2023-03-14T13:19:55;8.40;99.90
11963;DHT22;62678;52.130;5.584;2023-03-14T13:22:25;8.50;99.90
11963;DHT22;62678;52.130;5.584;2023-03-14T13:25:00;8.30;99.90
11963;DHT22;62678;52.130;5.584;2023-03-14T13:27:30;8.20;99.90
11963;DHT22;62678;52.130;5.584;2023-03-14T13:30:05;8.10;99.90
11963;DHT22;62678;52.130;5.584;2023-03-14T13:32:42;8.20;99.90
11963;DHT22;62678;52.130;5.584;2023-03-14T13:35:16;8.10;99.90
11963;DHT22;62678;52.130;5.584;2023-03-14T13:37:43;8.00;99.90
11963;DHT22;62678;52.130;5.584;2023-03-14T13:40:20;8.20;99.90
11963;DHT22;62678;52.130;5.584;2023-03-14T13:42:47;8.30;99.90
11963;DHT22;62678;52.130;5.584;2023-03-14T13:45:16;8.40;99.90
11963;DHT22;62678;52.130;5.584;2023-03-14T13:47:43;8.50;99.90
11963;DHT22;62678;52.130;5.584;2023-03-14T13:50:15;8.50;99.90
11963;DHT22;62678;52.130;5.584;2023-03-14T13:52:43;8.30;99.90
11963;DHT22;62678;52.130;5.584;2023-03-14T13:55:15;8.20;99.90
11963;DHT22;62678;52.130;5.584;2023-03-14T13:57:44;8.30;99.90
11963;DHT22;62678;52.130;5.584;2023-03-14T14:00:21;8.60;99.90
11963;DHT22;62678;52.130;5.584;2023-03-14T14:02:53;8.60;99.90
11963;DHT22;62678;52.130;5.584;2023-03-14T14:05:20;8.50;99.90
11963;DHT22;62678;52.130;5.584;2023-03-14T14:07:49;8.10;99.90
11963;DHT22;62678;52.130;5.584;2023-03-14T14:10:16;7.90;99.90
11963;DHT22;62678;52.130;5.584;2023-03-14T14:12:47;7.90;99.90
11963;DHT22;62678;52.130;5.584;2023-03-14T14:15:20;8.10;99.90
11963;DHT22;62678;52.130;5.584;2023-03-14T14:17:51;8.10;99.90
11963;DHT22;62678;52.130;5.584;2023-03-14T14:20:23;8.00;99.90
11963;DHT22;62678;52.130;5.584;2023-03-14T14:22:57;8.00;99.90
11963;DHT22;62678;52.130;5.584;2023-03-14T14:25:25;8.10;99.90
11963;DHT22;62678;52.130;5.584;2023-03-14T14:27:52;8.00;99.90
11963;DHT22;62678;52.130;5.584;2023-03-14T14:30:29;7.90;99.90
11963;DHT22;62678;52.130;5.584;2023-03-14T14:33:11;7.80;99.90
11963;DHT22;62678;52.130;5.584;2023-03-14T14:35:38;7.60;99.90
11963;DHT22;62678;52.130;5.584;2023-03-14T14:38:12;7.50;99.90
11963;DHT22;62678;52.130;5.584;2023-03-14T14:40:44;7.40;99.90
11963;DHT22;62678;52.130;5.584;2023-03-14T14:43:16;7.60;99.90
11963;DHT22;62678;52.130;5.584;2023-03-14T14:45:45;7.60;99.90
11963;DHT22;62678;52.130;5.584;2023-03-14T14:48:21;7.60;99.90
11963;DHT22;62678;52.130;5.584;2023-03-14T14:50:54;7.70;99.90
11963;DHT22;62678;52.130;5.584;2023-03-14T14:53:25;7.70;99.90
11963;DHT22;62678;52.130;5.584;2023-03-14T14:55:54;7.60;99.90
11963;DHT22;62678;52.130;5.584;2023-03-14T14:58:25;7.60;99.90
11963;DHT22;62678;52.130;5.584;2023-03-14T15:00:57;7.60;99.90
11963;DHT22;62678;52.130;5.584;2023-03-14T15:03:27;7.60;99.90
11963;DHT22;62678;52.130;5.584;2023-03-14T15:05:55;7.50;99.90
11963;DHT22;62678;52.130;5.584;2023-03-14T15:08:23;7.50;99.90
11963;DHT22;62678;52.130;5.584;2023-03-14T15:10:50;7.50;99.90
11963;DHT22;62678;52.130;5.584;2023-03-14T15:13:17;7.50;99.90
11963;DHT22;62678;52.130;5.584;2023-03-14T15:15:44;7.40;99.90
11963;DHT22;62678;52.130;5.584;2023-03-14T15:18:15;7.50;99.90
11963;DHT22;62678;52.130;5.584;2023-03-14T15:20:42;7.40;99.90
11963;DHT22;62678;52.130;5.584;2023-03-14T15:23:11;7.30;99.90
11963;DHT22;62678;52.130;5.584;2023-03-14T15:25:38;7.10;99.90
11963;DHT22;62678;52.130;5.584;2023-03-14T15:28:14;7.20;99.90
11963;DHT22;62678;52.130;5.584;2023-03-14T15:30:41;7.30;99.90
11963;DHT22;62678;52.130;5.584;2023-03-14T15:33:08;7.40;99.90
11963;DHT22;62678;52.130;5.584;2023-03-14T15:35:37;7.40;99.90
11963;DHT22;62678;52.130;5.584;2023-03-14T15:38:05;7.50;99.90
11963;DHT22;62678;52.130;5.584;2023-03-14T15:40:32;7.50;99.90
11963;DHT22;62678;52.130;5.584;2023-03-14T15:42:58;7.40;99.90
11963;DHT22;62678;52.130;5.584;2023-03-14T15:45:25;7.50;99.90
11963;DHT22;62678;52.130;5.584;2023-03-14T15:47:52;7.60;99.90
11963;DHT22;62678;52.130;5.584;2023-03-14T15:50:19;7.60;99.90
11963;DHT22;62678;52.130;5.584;2023-03-14T15:52:48;7.40;99.90
11963;DHT22;62678;52.130;5.584;2023-03-14T15:55:15;7.20;99.90